createdAt,value
2023-03-12T00:02:58.676Z,1018.1
2023-03-12T00:08:23.590Z,1018
2023-03-12T00:14:09.169Z,1018
2023-03-12T00:19:22.033Z,1018.1
2023-03-12T00:25:08.150Z,1018.3
2023-03-12T00:30:26.130Z,1018.2
2023-03-12T00:36:18.846Z,1018.3
2023-03-12T00:41:31.256Z,1018.2
2023-03-12T00:47:19.789Z,1018.3
2023-03-12T00:53:04.464Z,1018.4
2023-03-12T00:58:17.560Z,1018.4
2023-03-12T01:03:55.392Z,1018.5
2023-03-12T01:09:24.864Z,1018.4
2023-03-12T01:14:58.266Z,1018.3
2023-03-12T01:20:33.948Z,1018.3
2023-03-12T01:26:08.264Z,1018.4
2023-03-12T01:31:53.514Z,1018.4
2023-03-12T01:37:19.975Z,1018.3
2023-03-12T01:42:42.302Z,1018.3
2023-03-12T01:48:07.927Z,1018.4
2023-03-12T01:53:44.348Z,1018.5
2023-03-12T02:05:11.326Z,1018.5
2023-03-12T02:10:15.835Z,1018.6
2023-03-12T02:16:12.198Z,1018.5
2023-03-12T02:21:45.445Z,1018.5
2023-03-12T02:27:07.240Z,1018.5
2023-03-12T02:32:40.113Z,1018.4
2023-03-12T02:38:22.098Z,1018.5
2023-03-12T02:43:37.775Z,1018.4
2023-03-12T02:49:17.362Z,1018.3
2023-03-12T02:55:02.164Z,1018.1
2023-03-12T03:00:16.356Z,1018.3
2023-03-12T03:06:09.893Z,1018.4
2023-03-12T03:11:23.922Z,1018.5
2023-03-12T03:17:08.173Z,1018.4
2023-03-12T03:22:38.551Z,1018.3
2023-03-12T03:28:09.570Z,1018.2
2023-03-12T03:33:52.939Z,1018.3
2023-03-12T03:39:06.638Z,1018.3
2023-03-12T03:44:53.419Z,1018.2
2023-03-12T03:50:34.473Z,1018.3
2023-03-12T03:56:05.688Z,1018.3
2023-03-12T04:01:38.360Z,1018.2
2023-03-12T04:07:07.974Z,1018.2
2023-03-12T04:12:25.651Z,1018.3
2023-03-12T04:17:57.706Z,1018.2
2023-03-12T04:23:42.006Z,1018.3
2023-03-12T04:29:19.495Z,1018.3
2023-03-12T04:35:00.163Z,1018.3
2023-03-12T04:40:24.084Z,1018.4
2023-03-12T04:45:52.307Z,1018.5
2023-03-12T04:51:11.507Z,1018.5
2023-03-12T04:57:03.622Z,1018.4
2023-03-12T05:02:19.853Z,1018.6
2023-03-12T05:08:11.641Z,1018.6
2023-03-12T05:13:45.763Z,1018.7
2023-03-12T05:19:10.993Z,1018.8
2023-03-12T05:24:51.725Z,1018.8
2023-03-12T05:30:15.917Z,1018.8
2023-03-12T05:35:37.870Z,1019
2023-03-12T05:41:32.587Z,1018.9
2023-03-12T05:46:59.009Z,1018.9
2023-03-12T05:52:19.574Z,1019
2023-03-12T05:58:07.810Z,1019
2023-03-12T06:03:26.260Z,1019
2023-03-12T06:08:57.643Z,1018.8
2023-03-12T06:14:46.758Z,1018.9
2023-03-12T06:20:15.210Z,1019
2023-03-12T06:25:46.789Z,1019.1
2023-03-12T06:31:07.326Z,1019.1
2023-03-12T06:37:03.607Z,1019.3
2023-03-12T06:42:37.793Z,1019.2
2023-03-12T06:48:09.929Z,1019.2
2023-03-12T06:53:22.447Z,1019.4
2023-03-12T06:59:16.915Z,1019.2
2023-03-12T07:04:30.382Z,1019.2
2023-03-12T07:10:17.955Z,1019.4
2023-03-12T07:15:43.759Z,1019.4
2023-03-12T07:21:09.239Z,1019.4
2023-03-12T07:27:02.337Z,1019.4
2023-03-12T07:32:12.712Z,1019.5
2023-03-12T07:37:44.558Z,1019.3
2023-03-12T07:43:36.284Z,1019.3
2023-03-12T07:49:03.476Z,1019.2
2023-03-12T07:54:50.161Z,1019.2
2023-03-12T08:00:06.797Z,1019.2
2023-03-12T08:05:46.202Z,1019.2
2023-03-12T08:11:26.566Z,1019.2
2023-03-12T08:16:55.755Z,1019.4
2023-03-12T08:22:12.893Z,1019.5
2023-03-12T08:28:11.569Z,1019.3
2023-03-12T08:33:40.071Z,1019.3
2023-03-12T08:38:53.309Z,1019.4
2023-03-12T08:50:08.844Z,1019.3
2023-03-12T08:55:53.646Z,1019.2
2023-03-12T09:01:29.449Z,1019.4
2023-03-12T09:06:55.120Z,1019.4
2023-03-12T09:12:28.734Z,1019.4
2023-03-12T09:18:10.121Z,1019.4
2023-03-12T09:23:46.245Z,1019.6
2023-03-12T09:28:56.426Z,1019.6
2023-03-12T09:34:46.898Z,1019.6
2023-03-12T09:40:13.405Z,1019.7
2023-03-12T09:45:49.119Z,1019.8
2023-03-12T09:51:22.879Z,1019.9
2023-03-12T09:57:01.910Z,1020.1
2023-03-12T10:02:30.938Z,1020.2
2023-03-12T10:08:22.971Z,1020
2023-03-12T10:13:52.318Z,1020.1
2023-03-12T10:19:31.274Z,1020.1
2023-03-12T10:30:49.688Z,1020.3
2023-03-12T10:36:01.260Z,1020.4
2023-03-12T10:41:47.313Z,1020.2
2023-03-12T10:47:23.468Z,1020.1
2023-03-12T10:52:52.103Z,1020.3
2023-03-12T10:58:40.310Z,1020.3
2023-03-12T11:03:55.091Z,1020.4
2023-03-12T11:09:44.862Z,1020.5
2023-03-12T11:15:12.351Z,1020.5
2023-03-12T11:20:36.145Z,1020.3
2023-03-12T11:26:11.371Z,1020.1
2023-03-12T11:31:57.401Z,1019.8
2023-03-12T11:37:29.308Z,1019.6
2023-03-12T11:42:54.957Z,1019.5
2023-03-12T11:48:30.766Z,1019.3
2023-03-12T11:54:13.765Z,1019.2
2023-03-12T11:59:42.787Z,1019.1
2023-03-12T12:05:18.560Z,1018.8
2023-03-12T12:11:04.166Z,1018.8
2023-03-12T12:16:46.319Z,1018.9
2023-03-12T12:22:06.535Z,1018.9
2023-03-12T12:28:03.323Z,1019
2023-03-12T12:33:31.668Z,1019.2
2023-03-12T12:38:51.873Z,1019.1
2023-03-12T12:44:34.606Z,1018.9
2023-03-12T12:50:01.560Z,1018.8
2023-03-12T12:56:01.034Z,1018.8
2023-03-12T13:01:38.236Z,1018.5
2023-03-12T13:07:04.882Z,1018.7
2023-03-12T13:12:25.031Z,1018.4
2023-03-12T13:18:06.543Z,1018.3
2023-03-12T13:24:01.125Z,1018.2
2023-03-12T13:29:19.270Z,1018.1
2023-03-12T13:35:16.710Z,1017.9
2023-03-12T13:40:52.067Z,1017.7
2023-03-12T13:46:29.307Z,1017.6
2023-03-12T13:51:55.906Z,1017.5
2023-03-12T13:57:25.636Z,1017.5
2023-03-12T14:02:58.681Z,1017.4
2023-03-12T14:08:36.176Z,1017.5
2023-03-12T14:14:23.109Z,1017.7
2023-03-12T14:20:12.596Z,1017.4
2023-03-12T14:25:41.207Z,1017.4
2023-03-12T14:31:05.081Z,1017.5
2023-03-12T14:36:38.331Z,1017.3
2023-03-12T14:42:22.638Z,1017.3
2023-03-12T14:48:04.888Z,1017.4
2023-03-12T14:53:28.119Z,1017.3
2023-03-12T14:59:31.167Z,1017.5
2023-03-12T15:04:58.623Z,1017.3
2023-03-12T15:10:43.343Z,1017.3
2023-03-12T15:16:06.576Z,1017
2023-03-12T15:21:43.617Z,1017
2023-03-12T15:27:17.933Z,1017
2023-03-12T15:32:53.468Z,1017
2023-03-12T15:38:41.682Z,1016.9
2023-03-12T15:44:03.649Z,1017
2023-03-12T15:49:38.766Z,1016.9
2023-03-12T15:55:03.066Z,1016.9
2023-03-12T16:00:50.370Z,1017.1
2023-03-12T16:06:21.810Z,1017.2
2023-03-12T16:12:07.002Z,1017.2
2023-03-12T16:17:48.402Z,1017.3
2023-03-12T16:23:12.260Z,1017.2
2023-03-12T16:28:45.639Z,1017.3
2023-03-12T16:34:31.672Z,1017.3
2023-03-12T16:40:05.415Z,1017.3
2023-03-12T16:45:37.722Z,1017
2023-03-12T16:50:59.085Z,1017.1
2023-03-12T16:56:57.895Z,1017.2
2023-03-12T17:02:26.408Z,1017.1
2023-03-12T17:07:59.742Z,1017
2023-03-12T17:13:15.230Z,1017.1
2023-03-12T17:19:11.746Z,1017.2
2023-03-12T17:24:35.981Z,1017.3
2023-03-12T17:30:18.343Z,1017.3
2023-03-12T17:35:40.693Z,1017.4
2023-03-12T17:41:19.820Z,1017.5
2023-03-12T17:46:58.717Z,1017.7
2023-03-12T17:52:20.368Z,1017.7
2023-03-12T17:58:09.356Z,1018
2023-03-12T18:03:27.504Z,1018.1
2023-03-12T18:09:09.878Z,1018.2
2023-03-12T18:14:28.300Z,1018.4
2023-03-12T18:20:28.965Z,1018.4
2023-03-12T18:25:45.350Z,1018.6
2023-03-12T18:31:08.208Z,1018.5
2023-03-12T18:36:57.969Z,1018.5
2023-03-12T18:42:24.205Z,1018.8
2023-03-12T18:48:09.608Z,1018.8
2023-03-12T18:53:40.992Z,1018.9
2023-03-12T18:59:15.543Z,1019
2023-03-12T19:04:41.430Z,1019.1
2023-03-12T19:10:28.193Z,1019
2023-03-12T19:15:56.774Z,1019.1
2023-03-12T19:21:25.210Z,1019.3
2023-03-12T19:26:58.709Z,1019.5
2023-03-12T19:32:40.552Z,1019.6
2023-03-12T19:38:16.207Z,1019.5
2023-03-12T19:43:55.811Z,1019.6
2023-03-12T19:49:14.167Z,1019.6
2023-03-12T19:54:42.974Z,1019.7
2023-03-12T20:00:34.140Z,1019.8
2023-03-12T20:05:40.970Z,1019.7
2023-03-12T20:11:35.369Z,1019.8
2023-03-12T20:17:14.399Z,1019.6
2023-03-12T20:22:23.930Z,1019.6
2023-03-12T20:28:18.330Z,1019.6
2023-03-12T20:33:42.939Z,1019.8
2023-03-12T20:39:10.837Z,1019.9
2023-03-12T20:45:01.572Z,1020.1
2023-03-12T20:50:07.164Z,1020
2023-03-12T20:55:56.844Z,1019.9
2023-03-12T21:01:19.973Z,1019.9
2023-03-12T21:07:00.923Z,1019.7
2023-03-12T21:12:31.798Z,1019.8
2023-03-12T21:18:15.440Z,1019.8
2023-03-12T21:23:43.945Z,1019.7
2023-03-12T21:29:07.391Z,1019.9
2023-03-12T21:34:59.739Z,1020
2023-03-12T21:40:23.084Z,1019.8
2023-03-12T21:45:41.017Z,1020
2023-03-12T21:51:24.474Z,1020.2
2023-03-12T21:57:13.399Z,1019.9
2023-03-12T22:02:47.099Z,1019.9
2023-03-12T22:07:57.694Z,1020.1
2023-03-12T22:13:34.734Z,1019.8
2023-03-12T22:19:20.853Z,1019.8
2023-03-12T22:24:52.444Z,1019.7
2023-03-12T22:30:13.798Z,1019.6
2023-03-12T22:35:54.430Z,1019.4
2023-03-12T22:41:21.070Z,1019.5
2023-03-12T22:46:55.493Z,1019.4
2023-03-12T22:52:23.162Z,1019.3
2023-03-12T22:58:14.881Z,1019.3
2023-03-12T23:03:52.175Z,1019.4
2023-03-12T23:09:12.645Z,1019.4
2023-03-12T23:14:58.645Z,1019.3
2023-03-12T23:20:23.710Z,1019.2
2023-03-12T23:26:04.375Z,1019.4
2023-03-12T23:31:28.709Z,1019.4
2023-03-12T23:37:10.303Z,1019.6
2023-03-12T23:42:19.778Z,1019.7
2023-03-12T23:47:53.487Z,1019.5
2023-03-12T23:53:34.798Z,1019.3
2023-03-12T23:59:27.760Z,1019.1
